createdAt,value
2018-11-07T00:02:41.964Z,9.86
2018-11-07T00:05:10.736Z,9.86
2018-11-07T00:07:38.215Z,9.90
2018-11-07T00:10:06.455Z,9.86
2018-11-07T00:12:33.814Z,9.72
2018-11-07T00:15:03.625Z,9.63
2018-11-07T00:17:31.094Z,9.59
2018-11-07T00:19:58.550Z,9.47
2018-11-07T00:22:26.059Z,9.40
2018-11-07T00:24:53.420Z,9.38
2018-11-07T00:27:20.675Z,9.42
2018-11-07T00:29:48.192Z,9.45
2018-11-07T00:32:15.542Z,9.49
2018-11-07T00:34:43.517Z,9.47
2018-11-07T00:37:10.812Z,9.46
2018-11-07T00:39:38.155Z,9.45
2018-11-07T00:42:05.800Z,9.41
2018-11-07T00:44:34.055Z,9.40
2018-11-07T00:47:02.737Z,9.45
2018-11-07T00:49:30.152Z,9.52
2018-11-07T00:51:58.530Z,9.57
2018-11-07T00:54:26.013Z,9.57
2018-11-07T00:56:53.274Z,9.61
2018-11-07T00:59:20.578Z,9.70
2018-11-07T01:01:48.073Z,9.75
2018-11-07T01:04:15.468Z,9.75
2018-11-07T01:06:44.472Z,9.68
2018-11-07T01:09:12.795Z,9.68
2018-11-07T01:11:42.739Z,9.66
2018-11-07T01:14:10.686Z,9.62
2018-11-07T01:16:39.760Z,9.57
2018-11-07T01:19:07.467Z,9.53
2018-11-07T01:21:35.352Z,9.54
2018-11-07T01:24:02.831Z,9.53
2018-11-07T01:26:30.250Z,9.48
2018-11-07T01:28:57.683Z,9.29
2018-11-07T01:31:25.186Z,9.70
2018-11-07T01:33:52.544Z,9.65
2018-11-07T01:36:19.876Z,9.51
2018-11-07T01:38:49.346Z,9.36
2018-11-07T01:41:16.722Z,9.21
2018-11-07T01:43:44.150Z,9.19
2018-11-07T01:46:11.680Z,9.11
2018-11-07T01:48:39.186Z,9.05
2018-11-07T01:51:07.689Z,9.08
2018-11-07T01:53:36.793Z,9.00
2018-11-07T01:56:04.336Z,9.01
2018-11-07T01:58:31.760Z,8.98
2018-11-07T02:00:59.110Z,8.96
2018-11-07T02:03:27.637Z,8.98
2018-11-07T02:05:55.101Z,8.99
2018-11-07T02:08:27.101Z,8.97
2018-11-07T02:10:54.457Z,8.92
2018-11-07T02:13:21.876Z,8.89
2018-11-07T02:15:49.267Z,8.89
2018-11-07T02:18:17.509Z,8.84
2018-11-07T02:20:45.442Z,8.80
2018-11-07T02:23:12.820Z,8.67
2018-11-07T02:25:42.475Z,8.67
2018-11-07T02:28:12.084Z,8.54
2018-11-07T02:30:43.019Z,8.49
2018-11-07T02:33:10.651Z,8.48
2018-11-07T02:35:37.985Z,8.48
2018-11-07T02:38:05.687Z,8.52
2018-11-07T02:40:34.707Z,8.47
2018-11-07T02:43:03.934Z,8.43
2018-11-07T02:45:31.211Z,8.45
2018-11-07T02:47:58.689Z,8.44
2018-11-07T02:50:26.058Z,8.44
2018-11-07T02:52:53.513Z,8.38
2018-11-07T02:55:20.805Z,8.35
2018-11-07T02:57:49.125Z,8.28
2018-11-07T03:00:16.405Z,8.22
2018-11-07T03:02:43.937Z,8.25
2018-11-07T03:05:11.292Z,8.21
2018-11-07T03:07:39.526Z,8.15
2018-11-07T03:10:10.042Z,8.18
2018-11-07T03:12:39.401Z,8.16
2018-11-07T03:15:09.069Z,8.18
2018-11-07T03:17:36.762Z,8.10
2018-11-07T03:20:05.461Z,8.01
2018-11-07T03:22:33.231Z,8.10
2018-11-07T03:25:01.929Z,8.13
2018-11-07T03:27:29.366Z,8.16
2018-11-07T03:29:56.913Z,8.14
2018-11-07T03:32:24.481Z,8.02
2018-11-07T03:34:51.901Z,7.99
2018-11-07T03:37:19.328Z,7.94
2018-11-07T03:39:48.861Z,7.91
2018-11-07T03:42:16.330Z,7.83
2018-11-07T03:44:43.790Z,7.83
2018-11-07T03:47:14.258Z,7.82
2018-11-07T03:49:41.671Z,7.78
2018-11-07T03:52:11.271Z,7.77
2018-11-07T03:54:53.536Z,7.76
2018-11-07T03:57:20.913Z,7.76
2018-11-07T03:59:48.960Z,7.72
2018-11-07T04:02:18.273Z,7.69
2018-11-07T04:04:46.269Z,7.68
2018-11-07T04:07:13.554Z,7.63
2018-11-07T04:09:42.959Z,7.56
2018-11-07T04:12:11.759Z,7.56
2018-11-07T04:14:41.191Z,7.54
2018-11-07T04:17:08.690Z,7.54
2018-11-07T04:19:35.999Z,7.55
2018-11-07T04:22:03.278Z,7.52
2018-11-07T04:24:32.758Z,7.51
2018-11-07T04:27:01.109Z,7.48
2018-11-07T04:29:28.525Z,7.46
2018-11-07T04:31:56.802Z,7.38
2018-11-07T04:34:25.678Z,7.35
2018-11-07T04:36:54.013Z,7.38
2018-11-07T04:39:22.518Z,7.37
2018-11-07T04:41:51.617Z,7.33
2018-11-07T04:44:19.063Z,7.38
2018-11-07T04:46:47.758Z,7.34
2018-11-07T04:49:20.315Z,7.40
2018-11-07T04:51:47.787Z,7.41
2018-11-07T04:54:15.170Z,7.39
2018-11-07T04:56:42.500Z,7.28
2018-11-07T04:59:09.755Z,7.24
2018-11-07T05:01:39.925Z,7.20
2018-11-07T05:04:07.324Z,7.11
2018-11-07T05:06:34.760Z,7.15
2018-11-07T05:09:02.354Z,7.20
2018-11-07T05:11:31.436Z,7.30
2018-11-07T05:13:58.783Z,7.34
2018-11-07T05:16:26.139Z,7.33
2018-11-07T05:18:53.494Z,7.33
2018-11-07T05:21:22.779Z,7.32
2018-11-07T05:23:50.083Z,7.33
2018-11-07T05:26:17.442Z,7.29
2018-11-07T05:28:46.618Z,7.24
2018-11-07T05:31:13.855Z,7.10
2018-11-07T05:33:44.078Z,7.13
2018-11-07T05:36:12.988Z,7.18
2018-11-07T05:38:42.517Z,7.14
2018-11-07T05:41:09.996Z,7.13
2018-11-07T05:43:37.718Z,7.04
2018-11-07T05:46:06.546Z,7.04
2018-11-07T05:48:33.896Z,7.03
2018-11-07T05:51:02.382Z,7.04
2018-11-07T05:53:29.699Z,7.00
2018-11-07T05:55:58.623Z,7.01
2018-11-07T05:58:26.088Z,7.03
2018-11-07T06:00:53.458Z,7.05
2018-11-07T06:03:22.052Z,7.12
2018-11-07T06:05:52.682Z,6.87
2018-11-07T06:08:20.067Z,7.08
2018-11-07T06:10:49.729Z,7.01
2018-11-07T06:13:19.027Z,7.04
2018-11-07T06:15:46.551Z,7.02
2018-11-07T06:18:16.995Z,6.94
2018-11-07T06:20:44.893Z,6.94
2018-11-07T06:23:12.950Z,6.92
2018-11-07T06:25:40.681Z,6.90
2018-11-07T06:28:08.116Z,6.87
2018-11-07T06:30:35.562Z,6.91
2018-11-07T06:33:02.942Z,6.95
2018-11-07T06:35:30.309Z,7.02
2018-11-07T06:42:46.104Z,6.97
2018-11-07T06:45:19.898Z,7.01
2018-11-07T06:47:47.855Z,6.91
2018-11-07T06:50:17.513Z,6.88
2018-11-07T06:52:47.130Z,6.84
2018-11-07T06:55:15.911Z,6.93
2018-11-07T06:57:43.291Z,6.98
2018-11-07T07:00:14.471Z,7.04
2018-11-07T07:02:43.058Z,7.06
2018-11-07T07:05:10.472Z,7.11
2018-11-07T07:07:38.206Z,7.19
2018-11-07T07:10:09.168Z,7.28
2018-11-07T07:12:36.800Z,7.46
2018-11-07T07:15:05.244Z,7.63
2018-11-07T07:17:32.727Z,7.83
2018-11-07T07:20:01.802Z,8.08
2018-11-07T07:22:31.609Z,8.71
2018-11-07T07:25:01.837Z,10.07
2018-11-07T07:27:31.681Z,11.36
2018-11-07T07:29:59.184Z,12.57
2018-11-07T07:32:26.466Z,13.36
2018-11-07T07:34:54.113Z,14.22
2018-11-07T07:37:21.855Z,15.14
2018-11-07T07:39:50.278Z,15.58
2018-11-07T07:42:17.618Z,16.42
2018-11-07T07:44:45.014Z,16.93
2018-11-07T07:47:14.600Z,17.15
2018-11-07T07:49:43.616Z,17.43
2018-11-07T07:52:10.961Z,17.83
2018-11-07T07:54:39.674Z,17.88
2018-11-07T07:57:08.160Z,17.28
2018-11-07T07:59:37.623Z,17.60
2018-11-07T08:02:05.245Z,17.93
2018-11-07T08:04:33.015Z,17.76
2018-11-07T08:07:00.406Z,18.36
2018-11-07T08:09:27.925Z,18.51
2018-11-07T08:11:55.511Z,19.14
2018-11-07T08:14:23.694Z,19.66
2018-11-07T08:16:53.843Z,20.68
2018-11-07T08:19:22.905Z,21.14
2018-11-07T08:21:50.274Z,21.48
2018-11-07T08:24:17.556Z,21.95
2018-11-07T08:28:09.397Z,22.24
2018-11-07T08:30:36.902Z,21.80
2018-11-07T08:33:04.538Z,21.56
2018-11-07T08:35:31.865Z,20.97
2018-11-07T08:37:59.138Z,21.31
2018-11-07T08:40:26.464Z,21.42
2018-11-07T08:42:53.763Z,21.91
2018-11-07T08:45:22.008Z,22.27
2018-11-07T08:47:50.381Z,22.62
2018-11-07T08:50:19.818Z,22.65
2018-11-07T08:52:47.537Z,22.72
2018-11-07T08:55:19.286Z,22.76
2018-11-07T08:57:46.738Z,23.18
2018-11-07T09:00:23.002Z,23.82
2018-11-07T09:02:50.438Z,23.65
2018-11-07T09:05:20.197Z,24.12
2018-11-07T09:07:48.696Z,24.68
2018-11-07T09:10:17.337Z,25.41
2018-11-07T09:12:45.063Z,25.06
2018-11-07T09:15:17.144Z,24.89
2018-11-07T09:17:44.701Z,23.21
2018-11-07T09:20:14.642Z,23.52
2018-11-07T09:22:42.890Z,23.76
2018-11-07T09:25:10.536Z,24.61
2018-11-07T09:27:39.648Z,25.16
2018-11-07T09:30:11.853Z,25.53
2018-11-07T09:32:40.173Z,25.58
2018-11-07T09:35:10.199Z,25.63
2018-11-07T09:37:38.049Z,25.60
2018-11-07T09:40:08.024Z,25.91
2018-11-07T09:42:37.227Z,25.83
2018-11-07T09:45:05.713Z,25.09
2018-11-07T09:47:35.558Z,24.79
2018-11-07T09:50:03.869Z,24.66
2018-11-07T09:52:31.670Z,24.63
2018-11-07T09:54:59.665Z,24.17
2018-11-07T09:57:27.924Z,24.37
2018-11-07T09:59:57.472Z,24.21
2018-11-07T10:02:25.777Z,24.03
2018-11-07T10:04:53.933Z,24.01
2018-11-07T10:07:23.899Z,23.92
2018-11-07T10:09:51.931Z,24.41
2018-11-07T10:12:21.516Z,24.14
2018-11-07T10:14:49.005Z,23.77
2018-11-07T10:17:16.405Z,23.80
2018-11-07T10:19:43.846Z,23.19
2018-11-07T10:22:11.350Z,23.34
2018-11-07T10:24:53.779Z,23.27
2018-11-07T10:27:21.419Z,22.64
2018-11-07T10:29:49.607Z,22.53
2018-11-07T10:32:18.224Z,22.58
2018-11-07T10:34:45.919Z,22.59
2018-11-07T10:37:13.398Z,22.22
2018-11-07T10:39:40.654Z,21.78
2018-11-07T10:42:08.069Z,21.63
2018-11-07T10:44:36.502Z,21.56
2018-11-07T10:47:04.080Z,22.12
2018-11-07T10:49:31.327Z,22.26
2018-11-07T10:51:58.897Z,22.16
2018-11-07T10:54:27.870Z,21.07
2018-11-07T10:56:55.621Z,20.87
2018-11-07T10:59:25.105Z,20.70
2018-11-07T11:01:58.263Z,20.29
2018-11-07T11:04:25.687Z,20.11
2018-11-07T11:06:54.139Z,20.72
2018-11-07T11:09:21.451Z,20.67
2018-11-07T11:11:49.802Z,20.55
2018-11-07T11:14:20.169Z,21.35
2018-11-07T11:16:49.666Z,22.31
2018-11-07T11:19:17.893Z,21.50
2018-11-07T11:21:46.384Z,21.56
2018-11-07T11:24:15.128Z,22.21
2018-11-07T11:26:44.801Z,22.48
2018-11-07T11:29:13.353Z,21.96
2018-11-07T11:31:40.647Z,21.64
2018-11-07T11:34:08.853Z,20.50
2018-11-07T11:36:36.161Z,20.83
2018-11-07T11:39:04.750Z,21.20
2018-11-07T11:41:32.113Z,21.46
2018-11-07T11:43:59.468Z,22.46
2018-11-07T11:46:26.887Z,22.21
2018-11-07T11:48:56.297Z,21.95
2018-11-07T11:51:23.645Z,22.18
2018-11-07T11:53:53.162Z,22.47
2018-11-07T11:56:22.004Z,22.45
2018-11-07T11:58:50.765Z,22.54
2018-11-07T12:01:18.280Z,21.47
2018-11-07T12:03:45.635Z,21.32
2018-11-07T12:06:15.179Z,21.13
2018-11-07T12:08:42.516Z,21.50
2018-11-07T12:11:11.265Z,22.01
2018-11-07T12:13:40.775Z,21.58
2018-11-07T12:16:09.517Z,20.91
2018-11-07T12:18:37.794Z,20.07
2018-11-07T12:21:07.353Z,20.02
2018-11-07T12:23:35.144Z,19.95
2018-11-07T12:26:03.023Z,19.56
2018-11-07T12:28:30.456Z,19.73
2018-11-07T12:30:59.142Z,20.13
2018-11-07T12:33:26.475Z,19.94
2018-11-07T12:35:54.143Z,19.96
2018-11-07T12:38:21.473Z,19.62
2018-11-07T12:40:48.840Z,19.69
2018-11-07T12:43:16.278Z,19.56
2018-11-07T12:45:45.009Z,19.95
2018-11-07T12:48:12.578Z,20.01
2018-11-07T12:50:43.293Z,19.51
2018-11-07T12:53:10.665Z,19.47
2018-11-07T12:55:39.043Z,19.96
2018-11-07T12:58:07.252Z,20.10
2018-11-07T13:00:34.485Z,19.87
2018-11-07T13:03:03.324Z,20.11
2018-11-07T13:05:33.147Z,20.12
2018-11-07T13:08:00.526Z,20.39
2018-11-07T13:10:28.464Z,19.86
2018-11-07T13:12:55.736Z,19.13
2018-11-07T13:15:23.733Z,19.67
2018-11-07T13:17:53.535Z,20.39
2018-11-07T13:20:25.182Z,20.17
2018-11-07T13:22:55.618Z,19.96
2018-11-07T13:25:23.593Z,20.03
2018-11-07T13:27:51.252Z,19.91
2018-11-07T13:30:19.859Z,19.88
2018-11-07T13:32:47.449Z,19.74
2018-11-07T13:35:16.646Z,19.63
2018-11-07T13:37:46.187Z,19.61
2018-11-07T13:40:17.179Z,19.67
2018-11-07T13:42:44.503Z,20.01
2018-11-07T13:45:16.107Z,20.06
2018-11-07T13:47:47.630Z,20.33
2018-11-07T13:50:15.930Z,20.69
2018-11-07T13:52:43.447Z,21.15
2018-11-07T13:55:12.969Z,21.10
2018-11-07T13:57:40.515Z,21.23
2018-11-07T14:00:13.543Z,21.35
2018-11-07T14:02:43.360Z,21.46
2018-11-07T14:05:11.646Z,21.68
2018-11-07T14:07:39.638Z,21.83
2018-11-07T14:10:11.893Z,21.69
2018-11-07T14:12:39.699Z,22.33
2018-11-07T14:15:09.519Z,22.27
2018-11-07T14:17:39.765Z,22.00
2018-11-07T14:20:08.921Z,22.12
2018-11-07T14:22:36.538Z,21.95
2018-11-07T14:25:03.960Z,22.11
2018-11-07T14:27:32.187Z,22.33
2018-11-07T14:29:59.524Z,22.56
2018-11-07T14:32:30.868Z,22.55
2018-11-07T14:34:58.315Z,22.16
2018-11-07T14:37:26.910Z,22.40
2018-11-07T14:39:54.710Z,21.91
2018-11-07T14:42:24.180Z,21.61
2018-11-07T14:44:52.296Z,21.61
2018-11-07T14:47:21.964Z,21.56
2018-11-07T14:49:49.364Z,21.23
2018-11-07T14:52:16.714Z,20.91
2018-11-07T14:54:45.061Z,20.41
2018-11-07T14:57:12.589Z,20.00
2018-11-07T14:59:40.788Z,19.84
2018-11-07T15:02:10.502Z,19.58
2018-11-07T15:04:39.981Z,19.05
2018-11-07T15:07:07.311Z,18.68
2018-11-07T15:09:34.622Z,18.35
2018-11-07T15:12:02.203Z,18.03
2018-11-07T15:14:31.971Z,17.71
2018-11-07T15:16:59.551Z,17.43
2018-11-07T15:19:28.170Z,17.18
2018-11-07T15:21:55.685Z,17.18
2018-11-07T15:24:23.181Z,17.01
2018-11-07T15:26:51.607Z,16.97
2018-11-07T15:29:23.780Z,16.80
2018-11-07T15:31:51.176Z,16.52
2018-11-07T15:34:18.912Z,16.23
2018-11-07T15:36:46.319Z,15.95
2018-11-07T15:39:14.464Z,15.97
2018-11-07T15:41:44.647Z,15.97
2018-11-07T15:44:13.468Z,15.94
2018-11-07T15:46:42.204Z,15.86
2018-11-07T15:49:12.569Z,15.88
2018-11-07T15:51:40.724Z,15.79
2018-11-07T15:54:09.731Z,15.76
2018-11-07T15:56:40.795Z,15.69
2018-11-07T15:59:10.355Z,15.53
2018-11-07T16:01:37.837Z,15.49
2018-11-07T16:04:05.379Z,15.34
2018-11-07T16:06:34.278Z,15.27
2018-11-07T16:09:01.668Z,15.16
2018-11-07T16:11:30.810Z,15.03
2018-11-07T16:13:59.271Z,15.01
2018-11-07T16:16:27.989Z,14.95
2018-11-07T16:18:57.363Z,14.86
2018-11-07T16:21:24.874Z,14.82
2018-11-07T16:23:53.011Z,14.77
2018-11-07T16:26:21.352Z,14.63
2018-11-07T16:28:48.820Z,14.60
2018-11-07T16:31:16.398Z,14.48
2018-11-07T16:33:45.472Z,14.46
2018-11-07T16:36:13.976Z,14.40
2018-11-07T16:38:42.526Z,14.30
2018-11-07T16:41:10.694Z,14.21
2018-11-07T16:43:38.191Z,14.14
2018-11-07T16:46:05.563Z,14.03
2018-11-07T16:48:34.321Z,13.88
2018-11-07T16:51:01.705Z,13.90
2018-11-07T16:53:29.214Z,13.85
2018-11-07T16:55:56.871Z,13.83
2018-11-07T16:58:24.242Z,13.76
2018-11-07T17:00:51.797Z,13.64
2018-11-07T17:03:19.296Z,13.53
2018-11-07T17:05:46.725Z,13.39
2018-11-07T17:08:17.057Z,13.29
2018-11-07T17:10:55.366Z,13.28
2018-11-07T17:13:22.834Z,13.16
2018-11-07T17:15:52.567Z,13.08
2018-11-07T17:18:19.836Z,12.98
2018-11-07T17:20:47.324Z,12.93
2018-11-07T17:23:18.531Z,12.86
2018-11-07T17:25:43.933Z,12.90
2018-11-07T17:28:11.419Z,12.79
2018-11-07T17:30:38.869Z,12.74
2018-11-07T17:33:08.690Z,12.76
2018-11-07T17:35:35.986Z,12.72
2018-11-07T17:38:06.119Z,12.65
2018-11-07T17:40:35.516Z,12.42
2018-11-07T17:43:02.920Z,12.41
2018-11-07T17:45:30.281Z,12.36
2018-11-07T17:48:00.521Z,12.37
2018-11-07T17:50:29.911Z,12.28
2018-11-07T17:52:57.391Z,12.27
2018-11-07T17:55:24.927Z,12.21
2018-11-07T17:57:52.387Z,12.14
2018-11-07T18:00:21.720Z,12.04
2018-11-07T18:02:50.542Z,12.01
2018-11-07T18:05:17.949Z,12.04
2018-11-07T18:07:45.402Z,11.98
2018-11-07T18:10:16.715Z,11.99
2018-11-07T18:12:44.313Z,11.95
2018-11-07T18:15:11.956Z,11.92
2018-11-07T18:17:40.729Z,11.88
2018-11-07T18:20:10.221Z,11.78
2018-11-07T18:22:38.360Z,11.74
2018-11-07T18:25:06.689Z,11.79
2018-11-07T18:27:35.370Z,11.80
2018-11-07T18:30:05.782Z,11.79
2018-11-07T18:32:34.318Z,11.81
2018-11-07T18:35:02.978Z,11.80
2018-11-07T18:37:32.548Z,11.69
2018-11-07T18:40:04.830Z,11.75
2018-11-07T18:42:32.198Z,11.78
2018-11-07T18:45:00.761Z,11.79
2018-11-07T18:47:28.261Z,11.72
2018-11-07T18:49:55.965Z,11.73
2018-11-07T18:52:23.492Z,11.79
2018-11-07T18:54:50.984Z,11.85
2018-11-07T18:57:22.270Z,11.79
2018-11-07T18:59:49.737Z,11.71
2018-11-07T19:02:17.664Z,11.71
2018-11-07T19:04:44.985Z,11.70
2018-11-07T19:07:25.015Z,11.66
2018-11-07T19:09:53.240Z,11.72
2018-11-07T19:12:20.688Z,11.77
2018-11-07T19:14:48.584Z,11.81
2018-11-07T19:17:15.960Z,11.75
2018-11-07T19:19:43.439Z,11.70
2018-11-07T19:22:10.912Z,11.66
2018-11-07T19:24:38.459Z,11.66
2018-11-07T19:27:06.905Z,11.77
2018-11-07T19:29:34.103Z,11.84
2018-11-07T19:32:01.429Z,11.87
2018-11-07T19:34:28.920Z,11.91
2018-11-07T19:36:56.542Z,11.95
2018-11-07T19:39:23.856Z,11.95
2018-11-07T19:41:52.360Z,11.99
2018-11-07T19:44:20.518Z,12.01
2018-11-07T19:46:48.102Z,11.99
2018-11-07T19:49:18.343Z,12.03
2018-11-07T19:51:47.890Z,12.09
2018-11-07T19:54:15.849Z,12.15
2018-11-07T19:56:43.516Z,12.15
2018-11-07T19:59:12.367Z,12.20
2018-11-07T20:01:40.261Z,12.09
2018-11-07T20:04:09.226Z,11.98
2018-11-07T20:06:38.042Z,11.81
2018-11-07T20:09:07.889Z,11.86
2018-11-07T20:11:41.105Z,11.89
2018-11-07T20:14:11.666Z,11.94
2018-11-07T20:16:39.559Z,11.99
2018-11-07T20:19:25.371Z,12.01
2018-11-07T20:21:54.093Z,12.02
2018-11-07T20:24:22.056Z,12.04
2018-11-07T20:26:52.371Z,12.13
2018-11-07T20:29:21.023Z,12.19
2018-11-07T20:31:48.832Z,12.22
2018-11-07T20:34:16.101Z,12.24
2018-11-07T20:36:43.651Z,12.21
2018-11-07T20:39:13.621Z,11.91
2018-11-07T20:41:43.055Z,11.66
2018-11-07T20:44:10.662Z,11.39
2018-11-07T20:46:39.127Z,11.36
2018-11-07T20:49:09.667Z,11.25
2018-11-07T20:51:37.045Z,11.29
2018-11-07T20:54:04.364Z,11.24
2018-11-07T20:56:33.040Z,11.20
2018-11-07T20:59:00.495Z,11.21
2018-11-07T21:01:28.798Z,11.18
2018-11-07T21:03:56.560Z,11.18
2018-11-07T21:06:23.990Z,11.17
2018-11-07T21:08:51.904Z,11.22
2018-11-07T21:11:19.304Z,11.15
2018-11-07T21:13:46.995Z,11.12
2018-11-07T21:16:14.942Z,11.22
2018-11-07T21:18:42.324Z,11.24
2018-11-07T21:21:10.362Z,11.27
2018-11-07T21:23:37.821Z,11.23
2018-11-07T21:26:05.611Z,11.21
2018-11-07T21:28:32.912Z,11.11
2018-11-07T21:31:00.591Z,11.04
2018-11-07T21:33:28.056Z,11.05
2018-11-07T21:35:55.439Z,11.11
2018-11-07T21:38:22.863Z,11.16
2018-11-07T21:40:52.339Z,11.08
2018-11-07T21:43:19.899Z,11.10
2018-11-07T21:45:49.154Z,11.13
2018-11-07T21:48:18.416Z,11.19
2018-11-07T21:50:45.808Z,11.25
2018-11-07T21:53:13.234Z,11.23
2018-11-07T21:55:40.694Z,11.29
2018-11-07T21:58:09.066Z,11.21
2018-11-07T22:00:36.506Z,11.35
2018-11-07T22:03:04.254Z,11.34
2018-11-07T22:05:31.798Z,11.31
2018-11-07T22:08:00.119Z,11.23
2018-11-07T22:10:27.762Z,11.35
2018-11-07T22:12:56.432Z,11.40
2018-11-07T22:15:24.199Z,11.39
2018-11-07T22:17:53.317Z,11.31
2018-11-07T22:20:21.477Z,11.38
2018-11-07T22:22:49.904Z,11.38
2018-11-07T22:25:17.846Z,11.35
2018-11-07T22:27:47.794Z,11.34
2018-11-07T22:30:16.923Z,11.26
2018-11-07T22:32:44.274Z,11.27
2018-11-07T22:35:14.920Z,11.27
2018-11-07T22:37:42.866Z,11.26
2018-11-07T22:40:12.050Z,11.20
2018-11-07T22:42:42.596Z,11.25
2018-11-07T22:45:28.702Z,11.26
2018-11-07T22:47:58.161Z,11.32
2018-11-07T22:50:25.579Z,11.37
2018-11-07T22:52:52.890Z,11.41
2018-11-07T23:02:18.174Z,11.36
2018-11-07T23:04:45.495Z,11.30
2018-11-07T23:07:14.839Z,11.26
2018-11-07T23:09:42.331Z,11.30
2018-11-07T23:12:10.280Z,11.28
2018-11-07T23:14:38.496Z,11.33
2018-11-07T23:17:07.930Z,11.33
2018-11-07T23:19:35.839Z,11.36
2018-11-07T23:22:09.764Z,11.31
2018-11-07T23:24:38.151Z,11.31
2018-11-07T23:27:05.709Z,11.34
2018-11-07T23:29:33.833Z,11.38
2018-11-07T23:32:01.132Z,11.41
2018-11-07T23:34:28.480Z,11.37
2018-11-07T23:36:55.744Z,11.43
2018-11-07T23:39:25.059Z,11.44
2018-11-07T23:41:52.414Z,11.49
2018-11-07T23:44:21.875Z,11.46
2018-11-07T23:46:49.134Z,11.41
2018-11-07T23:49:21.281Z,11.22
2018-11-07T23:51:50.373Z,11.18
2018-11-07T23:54:19.992Z,11.33
2018-11-07T23:56:47.804Z,11.36
2018-11-07T23:59:15.090Z,11.27
